Time;durP1;ratioP1;P1;durP2;ratioP2;P2;SDS_P1;SDS_P2;PMS_P1;PMS_P2;Temp;Humidity;BMP_temperature;BMP_pressure;BME280_temperature;BME280_humidity;BME280_pressure;Samples;Min_cycle;Max_cycle;Signal;HPM_P1;HPM_P2
2022/08/08 00:02:03;;;;;;;4.68;1.70;;;;;;;26.42;35.69;99819.84;4462750;32;32292;-62
2022/08/08 00:05:05;;;;;;;5.90;2.20;;;;;;;26.49;35.51;99820.72;4457206;32;33776;-62
2022/08/08 00:08:01;;;;;;;4.12;1.85;;;;;;;26.50;35.74;99825.16;4451165;32;35294;-62
2022/08/08 00:10:43;;;;;;;4.25;1.70;;;;;;;26.38;36.35;99818.59;4451872;32;33192;-62
2022/08/08 00:14:08;;;;;;;6.05;2.12;;;;;;;26.31;36.41;99821.38;4444705;32;33519;-62
2022/08/08 00:17:10;;;;;;;4.10;1.70;;;;;;;26.08;36.76;99819.09;4403188;32;33926;-62
2022/08/08 00:20:01;;;;;;;2.97;1.50;;;;;;;25.94;36.61;99821.03;4458876;32;33974;-64
2022/08/08 00:22:51;;;;;;;3.35;1.52;;;;;;;25.82;36.75;99808.19;4450799;32;35253;-61
2022/08/08 00:25:29;;;;;;;5.78;1.98;;;;;;;25.92;36.40;99801.19;4444182;32;33630;-61
2022/08/08 00:28:23;;;;;;;5.07;1.55;;;;;;;25.93;35.98;99800.12;4457544;32;34024;-61
2022/08/08 00:31:31;;;;;;;3.87;1.60;;;;;;;25.54;36.71;99790.03;4451749;32;35166;-63
2022/08/08 00:38:04;;;;;;;4.75;1.70;;;;;;;25.68;36.14;99778.03;4455251;32;34654;-63
2022/08/08 00:41:07;;;;;;;3.22;1.33;;;;;;;25.75;36.25;99787.06;4448162;32;32504;-63
2022/08/08 00:43:59;;;;;;;4.35;1.55;;;;;;;25.90;36.17;99786.00;4450327;32;33792;-62
2022/08/08 00:46:57;;;;;;;6.27;1.87;;;;;;;25.85;36.38;99794.06;4456192;32;33628;-63
2022/08/08 00:49:32;;;;;;;3.83;1.45;;;;;;;25.83;36.37;99786.03;4458295;32;33270;-62
2022/08/08 00:52:22;;;;;;;3.55;1.40;;;;;;;25.88;36.18;99785.41;4452413;32;34826;-62
2022/08/08 00:55:09;;;;;;;4.60;1.83;;;;;;;25.85;36.19;99785.81;4457718;32;33958;-62
2022/08/08 00:58:24;;;;;;;3.47;1.80;;;;;;;25.70;36.41;99786.84;4442197;32;33967;-62
2022/08/08 01:01:23;;;;;;;3.92;1.50;;;;;;;25.50;37.19;99797.00;4454534;32;34533;-62
2022/08/08 01:04:09;;;;;;;4.03;1.62;;;;;;;25.54;36.97;99781.81;4454932;32;33744;-62
2022/08/08 01:07:09;;;;;;;5.05;1.83;;;;;;;25.64;36.81;99784.12;4457500;32;34884;-61
2022/08/08 01:09:53;;;;;;;3.75;1.90;;;;;;;25.69;36.73;99774.22;4440593;32;34943;-61
2022/08/08 01:12:53;;;;;;;4.82;1.60;;;;;;;25.80;36.74;99780.94;4464207;32;33407;-61
2022/08/08 01:15:51;;;;;;;3.95;1.77;;;;;;;25.90;36.55;99781.38;4445716;32;31961;-63
2022/08/08 01:18:46;;;;;;;4.18;1.75;;;;;;;25.77;36.67;99784.94;4456515;32;34097;-63
2022/08/08 01:21:56;;;;;;;3.10;1.50;;;;;;;25.82;36.57;99776.12;4466951;32;34533;-61
2022/08/08 01:24:57;;;;;;;3.62;1.70;;;;;;;25.82;36.46;99781.59;4460282;32;33512;-61
2022/08/08 01:28:00;;;;;;;3.85;1.45;;;;;;;25.64;36.88;99782.22;4444914;32;34560;-60
2022/08/08 01:30:42;;;;;;;3.53;1.77;;;;;;;25.55;36.88;99781.59;4442291;32;32725;-61
2022/08/08 01:34:03;;;;;;;4.03;1.60;;;;;;;25.52;37.06;99786.63;4453783;32;35118;-61
2022/08/08 01:36:59;;;;;;;3.95;1.62;;;;;;;25.66;36.82;99782.00;4447954;32;33260;-61
2022/08/08 01:39:58;;;;;;;3.72;1.80;;;;;;;25.73;36.82;99769.12;4453468;32;33905;-61
2022/08/08 01:42:36;;;;;;;3.47;1.73;;;;;;;25.69;37.41;99766.00;4466478;32;35245;-61
2022/08/08 01:45:28;;;;;;;5.37;2.20;;;;;;;25.61;37.55;99771.66;4454695;32;33876;-60
2022/08/08 01:48:02;;;;;;;4.35;1.83;;;;;;;25.82;37.27;99756.09;4461796;32;33271;-60
2022/08/08 01:51:00;;;;;;;4.70;1.83;;;;;;;25.85;37.13;99755.66;4451699;32;33790;-61
2022/08/08 01:54:35;;;;;;;3.95;1.67;;;;;;;25.84;37.43;99768.50;4463129;32;35012;-61
2022/08/08 01:58:01;;;;;;;5.82;1.77;;;;;;;25.84;37.03;99762.19;4459589;32;34037;-62
2022/08/08 02:00:53;;;;;;;5.68;1.80;;;;;;;25.81;36.85;99760.75;4459560;32;33430;-61
2022/08/08 02:03:56;;;;;;;2.72;1.70;;;;;;;25.78;36.94;99753.75;4452248;32;35330;-61
2022/08/08 02:06:56;;;;;;;3.50;1.60;;;;;;;25.50;37.71;99772.31;4449934;32;32220;-61
2022/08/08 02:09:43;;;;;;;2.78;1.70;;;;;;;25.70;37.35;99759.44;4461705;32;33852;-61
2022/08/08 02:12:51;;;;;;;4.55;1.92;;;;;;;25.60;37.77;99772.75;4450274;32;34575;-60
2022/08/08 02:15:33;;;;;;;3.75;1.85;;;;;;;25.45;37.95;99780.31;4448412;32;34662;-61
2022/08/08 02:18:16;;;;;;;4.00;1.45;;;;;;;25.43;37.91;99774.22;4441544;32;33898;-61
2022/08/08 02:24:05;;;;;;;4.37;1.87;;;;;;;25.55;37.61;99784.34;4443347;32;33647;-60
2022/08/08 02:27:02;;;;;;;3.08;1.45;;;;;;;25.50;37.55;99786.88;4450894;32;33336;-61
2022/08/08 02:30:05;;;;;;;5.12;1.58;;;;;;;25.58;37.31;99784.97;4450074;32;33757;-60
2022/08/08 02:32:41;;;;;;;;;;;;;;;25.53;37.80;99791.94;4453719;32;35224;-61
2022/08/08 02:35:36;;;;;;;4.30;1.55;;;;;;;25.70;37.55;99800.56;4461630;32;31784;-61
2022/08/08 02:38:53;;;;;;;4.25;1.50;;;;;;;25.64;37.40;99795.91;4463032;32;33709;-60
2022/08/08 02:41:59;;;;;;;3.35;1.62;;;;;;;25.63;37.31;99790.66;4452019;32;33907;-61
2022/08/08 02:44:44;;;;;;;3.85;1.80;;;;;;;25.65;37.24;99794.87;4452043;32;35165;-60
2022/08/08 02:47:43;;;;;;;5.82;1.42;;;;;;;25.60;37.30;99800.16;4459189;32;33398;-60
2022/08/08 02:50:31;;;;;;;4.65;2.05;;;;;;;25.45;37.66;99800.34;4448100;32;33727;-61
2022/08/08 02:53:17;;;;;;;4.20;1.80;;;;;;;25.59;37.51;99790.25;4449922;32;34022;-61
2022/08/08 02:56:33;;;;;;;4.70;1.62;;;;;;;25.72;37.38;99792.97;4455572;32;32760;-61
2022/08/08 02:59:42;;;;;;;9.93;2.10;;;;;;;25.79;37.29;99798.44;4451882;32;33179;-61
2022/08/08 03:03:14;;;;;;;4.22;1.42;;;;;;;25.81;37.08;99788.16;4456500;32;34842;-62
2022/08/08 03:06:27;;;;;;;4.10;1.60;;;;;;;25.45;37.54;99803.06;4441244;32;34095;-61
2022/08/08 03:09:31;;;;;;;3.60;1.67;;;;;;;25.67;37.36;99806.47;4450694;32;35222;-61
2022/08/08 03:12:48;;;;;;;6.30;1.98;;;;;;;25.70;37.61;99806.03;4444636;32;33468;-62
2022/08/08 03:15:44;;;;;;;6.10;1.80;;;;;;;25.73;37.86;99810.25;4449299;32;34669;-62
2022/08/08 03:19:13;;;;;;;4.72;1.90;;;;;;;25.82;37.84;99814.50;4447023;32;33705;-62
2022/08/08 03:21:46;;;;;;;6.23;2.00;;;;;;;25.81;37.74;99818.31;4446126;32;33329;-62
2022/08/08 03:24:27;;;;;;;3.65;1.70;;;;;;;25.77;37.70;99812.34;4451780;32;35289;-62
2022/08/08 03:27:08;;;;;;;6.03;1.75;;;;;;;25.85;37.70;99816.00;4464264;32;34828;-62
2022/08/08 03:29:41;;;;;;;3.75;1.25;;;;;;;25.83;38.00;99815.34;4437271;32;33861;-62
2022/08/08 03:35:21;;;;;;;3.80;1.85;;;;;;;25.84;37.87;99800.56;4446549;32;34406;-61
2022/08/08 03:37:52;;;;;;;5.43;1.60;;;;;;;25.79;38.05;99812.16;4453548;32;33917;-60
2022/08/08 03:40:39;;;;;;;4.53;1.90;;;;;;;25.78;37.85;99807.75;4457297;32;32734;-61
2022/08/08 03:43:21;;;;;;;2.37;1.37;;;;;;;25.67;38.26;99800.12;4457231;32;35663;-61
2022/08/08 03:45:49;;;;;;;4.60;1.75;;;;;;;25.56;38.46;99797.00;4453842;32;32958;-61
2022/08/08 03:48:34;;;;;;;;;;;;;;;25.67;38.13;99800.97;4464471;32;33902;-61
2022/08/08 03:51:23;;;;;;;6.05;1.70;;;;;;;25.86;37.70;99814.91;4459578;32;35094;-62
2022/08/08 03:54:08;;;;;;;4.10;1.60;;;;;;;25.64;38.09;99817.84;4458782;32;35299;-60
2022/08/08 03:56:48;;;;;;;4.40;1.75;;;;;;;25.60;38.11;99816.59;4460282;32;33790;-61
2022/08/08 03:59:16;;;;;;;4.50;1.67;;;;;;;25.35;38.61;99804.56;4460046;32;32194;-61
2022/08/08 04:01:53;;;;;;;4.20;1.75;;;;;;;25.38;38.48;99798.66;4450128;32;35168;-61
2022/08/08 04:04:41;;;;;;;4.82;1.77;;;;;;;25.62;37.92;99808.13;4452086;32;34366;-61
2022/08/08 04:07:14;;;;;;;6.90;1.95;;;;;;;25.59;37.79;99817.66;4454661;32;32732;-61
2022/08/08 04:09:55;;;;;;;4.60;1.77;;;;;;;25.33;38.39;99811.09;4447620;32;33407;-61
2022/08/08 04:12:35;;;;;;;3.60;1.70;;;;;;;25.62;37.82;99814.50;4453014;32;34015;-60
2022/08/08 04:15:04;;;;;;;5.40;2.00;;;;;;;25.51;38.21;99821.41;4459363;32;33942;-61
2022/08/08 04:17:35;;;;;;;5.45;2.87;;;;;;;25.44;38.30;99820.59;4459739;32;32974;-61
2022/08/08 04:20:26;;;;;;;4.07;1.90;;;;;;;25.47;38.37;99824.81;4459364;32;33926;-61
2022/08/08 04:22:56;;;;;;;4.55;2.10;;;;;;;25.50;38.41;99824.38;4451666;32;32849;-60
2022/08/08 04:25:25;;;;;;;4.07;1.83;;;;;;;25.50;38.49;99827.97;4459750;32;32657;-60
2022/08/08 04:28:02;;;;;;;5.62;1.92;;;;;;;25.54;38.52;99833.87;4457896;32;33408;-61
2022/08/08 04:30:52;;;;;;;4.60;1.52;;;;;;;25.60;38.43;99833.03;4460985;32;33539;-61
2022/08/08 04:33:27;;;;;;;6.32;2.00;;;;;;;25.64;38.73;99839.78;4451708;32;33927;-61
2022/08/08 04:36:11;;;;;;;4.95;2.10;;;;;;;25.58;39.20;99834.28;4456463;32;33944;-63
2022/08/08 04:38:41;;;;;;;4.70;1.83;;;;;;;25.82;38.91;99843.81;4452045;32;32782;-63
2022/08/08 04:41:14;;;;;;;6.43;2.28;;;;;;;26.00;38.63;99835.78;4456188;32;34733;-62
2022/08/08 04:43:47;;;;;;;7.18;2.35;;;;;;;26.06;38.67;99843.16;4462494;32;32887;-63
2022/08/08 04:46:27;;;;;;;4.62;2.22;;;;;;;26.04;38.87;99833.47;4455577;32;34023;-62
2022/08/08 04:48:58;;;;;;;6.32;2.53;;;;;;;26.00;39.26;99838.50;4452724;32;33561;-62
2022/08/08 04:51:30;;;;;;;3.80;2.05;;;;;;;26.13;39.24;99833.03;4463969;32;33888;-63
2022/08/08 04:54:18;;;;;;;4.05;2.08;;;;;;;26.22;39.48;99844.59;4461423;32;34147;-62
2022/08/08 04:57:08;;;;;;;7.20;2.33;;;;;;;26.31;39.90;99848.81;4454360;32;35319;-62
2022/08/08 04:59:40;;;;;;;6.75;2.60;;;;;;;25.93;40.70;99849.50;4455473;32;33565;-63
2022/08/08 05:02:10;;;;;;;5.18;2.50;;;;;;;26.07;40.59;99854.97;4452372;32;33767;-61
2022/08/08 05:04:43;;;;;;;5.97;2.17;;;;;;;25.99;40.88;99853.28;4458278;32;34873;-61
2022/08/08 05:07:15;;;;;;;10.48;2.80;;;;;;;26.21;40.16;99862.13;4462919;32;34238;-62
2022/08/08 05:09:42;;;;;;;7.00;2.40;;;;;;;26.42;40.03;99853.66;4451367;32;32304;-62
2022/08/08 05:12:10;;;;;;;5.15;2.40;;;;;;;26.12;40.77;99855.19;4458407;32;34933;-61
2022/08/08 05:14:48;;;;;;;4.00;2.33;;;;;;;26.42;40.19;99856.37;4451540;32;32951;-61
2022/08/08 05:17:20;;;;;;;5.90;2.50;;;;;;;26.44;40.53;99851.50;4460394;32;33634;-62
2022/08/08 05:19:48;;;;;;;4.93;2.28;;;;;;;26.23;41.18;99849.88;4458730;32;34563;-61
2022/08/08 05:22:37;;;;;;;6.50;2.70;;;;;;;26.32;41.43;99847.75;4436840;32;32243;-61
2022/08/08 05:25:06;;;;;;;5.35;2.97;;;;;;;26.30;41.93;99858.09;4450537;32;33506;-61
2022/08/08 05:27:36;;;;;;;5.15;2.87;;;;;;;26.64;41.30;99856.13;4453649;32;33986;-61
2022/08/08 05:30:11;;;;;;;5.18;2.58;;;;;;;26.44;41.88;99859.75;4453828;32;33479;-62
2022/08/08 05:32:39;;;;;;;6.85;2.80;;;;;;;26.40;42.11;99866.72;4452372;32;33771;-61
2022/08/08 05:35:09;;;;;;;5.95;3.22;;;;;;;26.30;42.44;99869.06;4456637;32;32990;-61
2022/08/08 05:37:47;;;;;;;6.18;3.35;;;;;;;26.36;42.32;99862.75;4459867;32;34170;-62
2022/08/08 05:40:24;;;;;;;7.15;3.10;;;;;;;26.70;41.92;99868.97;4458432;32;33532;-61
2022/08/08 05:43:03;;;;;;;11.20;3.17;;;;;;;26.51;42.32;99870.72;4454305;32;33020;-61
2022/08/08 05:45:56;;;;;;;9.57;4.65;;;;;;;26.57;42.40;99864.37;4455589;32;35333;-61
2022/08/08 05:48:36;;;;;;;17.05;4.50;;;;;;;26.59;42.58;99856.78;4453828;32;32824;-61
2022/08/08 05:51:05;;;;;;;5.40;2.92;;;;;;;26.48;43.17;99857.44;4453456;32;33930;-61
2022/08/08 05:53:44;;;;;;;7.55;3.10;;;;;;;26.57;42.83;99866.28;4455686;32;34028;-61
2022/08/08 05:56:37;;;;;;;6.80;3.65;;;;;;;26.54;43.27;99866.72;4459143;32;34350;-61
2022/08/08 05:59:19;;;;;;;6.40;3.22;;;;;;;26.71;42.93;99866.03;4459270;32;34025;-61
2022/08/08 06:05:12;;;;;;;5.35;3.30;;;;;;;26.60;42.93;99852.97;4433422;32;33569;-61
2022/08/08 06:08:03;;;;;;;6.93;3.35;;;;;;;26.60;42.63;99852.12;4454928;32;33772;-62
2022/08/08 06:10:57;;;;;;;6.87;3.08;;;;;;;26.30;43.25;99851.78;4465005;32;34066;-61
2022/08/08 06:13:31;;;;;;;6.62;3.37;;;;;;;26.34;43.07;99861.25;4440666;32;33581;-61
2022/08/08 06:16:15;;;;;;;18.20;4.50;;;;;;;26.48;43.08;99874.78;4455989;32;32176;-61
2022/08/08 06:18:53;;;;;;;20.42;4.57;;;;;;;26.88;42.29;99871.03;4455128;32;34541;-61
2022/08/08 06:21:21;;;;;;;8.55;3.92;;;;;;;26.83;42.50;99870.84;4456056;32;32603;-61
2022/08/08 06:24:09;;;;;;;12.00;4.07;;;;;;;26.90;42.32;99872.50;4449778;32;33681;-61
2022/08/08 06:26:56;;;;;;;13.95;4.62;;;;;;;26.86;42.58;99878.63;4457554;32;33752;-61
2022/08/08 06:29:34;;;;;;;12.50;3.67;;;;;;;26.84;42.87;99872.53;4449261;32;34114;-61
2022/08/08 06:32:28;;;;;;;8.63;3.75;;;;;;;26.94;42.40;99872.91;4455080;32;34060;-61
2022/08/08 06:35:03;;;;;;;6.97;3.28;;;;;;;27.05;42.17;99863.13;4459567;32;34702;-61
2022/08/08 06:37:56;;;;;;;5.55;3.00;;;;;;;26.98;42.02;99856.84;4456550;32;33826;-61
2022/08/08 06:40:28;;;;;;;7.57;2.95;;;;;;;27.10;41.85;99861.41;4461860;32;33918;-61
2022/08/08 06:43:07;;;;;;;8.68;2.97;;;;;;;27.15;41.18;99869.03;4456762;32;33117;-61
2022/08/08 06:45:37;;;;;;;10.05;3.17;;;;;;;27.21;40.92;99875.56;4464285;32;33544;-62
2022/08/08 06:48:06;;;;;;;10.68;3.28;;;;;;;27.09;40.77;99876.19;4440635;32;32570;-61
2022/08/08 06:50:38;;;;;;;5.87;2.90;;;;;;;27.17;40.70;99875.16;4458857;32;33204;-62
2022/08/08 06:53:07;;;;;;;8.73;3.00;;;;;;;27.23;40.67;99877.03;4459189;32;34195;-61
2022/08/08 06:55:45;;;;;;;8.13;3.15;;;;;;;27.25;41.00;99880.38;4464761;32;34446;-61
2022/08/08 06:58:29;;;;;;;6.05;2.22;;;;;;;27.25;41.03;99885.03;4456600;32;35429;-61
2022/08/08 07:01:03;;;;;;;4.35;2.42;;;;;;;27.23;40.11;99885.25;4449872;32;34882;-61
2022/08/08 07:03:57;;;;;;;5.97;2.53;;;;;;;27.35;38.17;99885.38;4451207;32;33632;-61
2022/08/08 07:06:56;;;;;;;4.90;2.03;;;;;;;27.39;37.30;99881.16;4458136;32;32944;-61
2022/08/08 07:09:37;;;;;;;5.03;2.33;;;;;;;26.72;37.97;99875.12;4453751;32;34952;-61
2022/08/08 07:12:40;;;;;;;6.10;2.20;;;;;;;27.00;37.68;99871.19;4460596;32;32040;-61
2022/08/08 07:15:12;;;;;;;5.22;2.40;;;;;;;27.47;36.60;99877.28;4449971;32;33661;-61
2022/08/08 07:18:03;;;;;;;5.45;2.20;;;;;;;27.38;37.14;99874.81;4458543;32;34678;-61
2022/08/08 07:20:56;;;;;;;3.85;1.90;;;;;;;27.16;37.68;99868.81;4457530;32;34988;-61
2022/08/08 07:23:38;;;;;;;3.72;2.03;;;;;;;27.38;37.57;99862.97;4444817;32;35080;-62
2022/08/08 07:26:31;;;;;;;12.37;3.17;;;;;;;27.46;37.72;99872.88;4453503;32;34094;-61
2022/08/08 07:29:04;;;;;;;5.40;2.10;;;;;;;27.65;37.79;99877.38;4455506;32;33789;-61
2022/08/08 07:31:39;;;;;;;5.72;2.28;;;;;;;27.49;37.95;99880.66;4457337;32;33952;-61
2022/08/08 07:34:09;;;;;;;6.12;2.42;;;;;;;27.61;38.14;99887.97;4456077;32;34097;-61
2022/08/08 07:36:48;;;;;;;4.43;2.40;;;;;;;27.52;38.22;99892.06;4459450;32;33012;-60
2022/08/08 07:39:21;;;;;;;4.40;2.00;;;;;;;27.54;37.39;99889.06;4452508;32;32761;-61
2022/08/08 07:42:12;;;;;;;4.25;1.95;;;;;;;27.65;36.95;99885.63;4458462;32;33861;-61
2022/08/08 07:44:46;;;;;;;4.93;2.22;;;;;;;27.67;37.17;99888.97;4457414;32;35206;-60
2022/08/08 07:47:19;;;;;;;3.75;1.70;;;;;;;27.93;35.68;99898.97;4451518;32;35366;-61
2022/08/08 07:50:06;;;;;;;7.93;2.47;;;;;;;27.88;36.26;99898.81;4455752;32;33606;-61
2022/08/08 07:52:35;;;;;;;3.80;1.80;;;;;;;27.61;36.07;99895.37;4456750;32;33996;-61
2022/08/08 07:55:28;;;;;;;5.87;2.00;;;;;;;27.71;36.25;99897.66;4462791;32;33875;-61
2022/08/08 07:58:07;;;;;;;8.88;2.03;;;;;;;28.02;35.97;99907.78;4455759;32;35299;-61
2022/08/08 08:00:44;;;;;;;5.03;2.10;;;;;;;28.19;34.74;99908.06;4453178;32;33568;-61
2022/08/08 08:03:32;;;;;;;5.07;2.03;;;;;;;28.36;35.20;99906.41;4446382;32;33922;-61
2022/08/08 08:06:12;;;;;;;5.55;2.03;;;;;;;28.37;34.68;99908.09;4455292;32;34408;-61
2022/08/08 08:08:54;;;;;;;5.37;1.90;;;;;;;28.10;34.35;99910.25;4458895;32;35044;-61
2022/08/08 08:11:23;;;;;;;5.62;2.20;;;;;;;28.38;34.17;99908.91;4457134;32;33084;-61
2022/08/08 08:14:05;;;;;;;5.97;2.22;;;;;;;28.12;35.17;99907.25;4438849;32;33653;-61
2022/08/08 08:16:39;;;;;;;4.70;2.15;;;;;;;27.75;35.66;99904.38;4453521;32;33950;-61
2022/08/08 08:19:09;;;;;;;6.85;2.17;;;;;;;27.71;35.87;99905.91;4447021;32;33611;-61
2022/08/08 08:21:41;;;;;;;4.70;1.98;;;;;;;27.81;36.08;99904.34;4459823;32;33487;-61
2022/08/08 08:24:25;;;;;;;4.20;1.95;;;;;;;28.16;35.64;99905.78;4466276;32;35099;-61
2022/08/08 08:26:59;;;;;;;5.25;1.92;;;;;;;28.63;34.89;99898.72;4450745;32;32438;-61
2022/08/08 08:29:30;;;;;;;6.45;2.40;;;;;;;28.53;34.91;99909.44;4446054;32;32553;-62
2022/08/08 08:31:58;;;;;;;6.97;1.90;;;;;;;28.83;33.26;99912.28;4463537;32;32311;-62
2022/08/08 08:34:32;;;;;;;5.25;2.00;;;;;;;28.99;31.39;99914.41;4458088;32;33707;-61
2022/08/08 08:37:02;;;;;;;4.05;1.95;;;;;;;28.97;31.09;99907.44;4463828;32;35231;-62
2022/08/08 08:39:36;;;;;;;4.07;1.77;;;;;;;28.66;32.04;99914.78;4465943;32;33904;-62
2022/08/08 08:42:25;;;;;;;4.40;1.87;;;;;;;29.09;30.91;99918.59;4445000;32;33364;-62
2022/08/08 08:45:05;;;;;;;3.65;1.98;;;;;;;28.47;33.25;99921.34;4446442;32;33357;-62
2022/08/08 08:47:52;;;;;;;4.47;2.03;;;;;;;29.09;32.63;99933.19;4458193;32;32947;-62
2022/08/08 08:50:25;;;;;;;5.47;1.95;;;;;;;29.10;33.28;99937.63;4455874;32;34114;-62
2022/08/08 08:53:05;;;;;;;9.20;2.80;;;;;;;29.15;33.39;99925.87;4454799;32;32241;-62
2022/08/08 08:55:55;;;;;;;4.82;2.00;;;;;;;29.14;33.18;99921.47;4459096;32;34663;-62
2022/08/08 08:58:34;;;;;;;6.57;2.35;;;;;;;29.06;33.75;99930.06;4463427;32;33931;-62
2022/08/08 09:01:05;;;;;;;4.03;1.85;;;;;;;28.87;34.10;99919.00;4459003;32;34171;-62
2022/08/08 09:03:42;;;;;;;3.08;1.90;;;;;;;29.14;33.55;99924.22;4459534;32;33705;-62
2022/08/08 09:06:19;;;;;;;4.50;1.87;;;;;;;29.15;33.60;99928.66;4458353;32;34939;-62
2022/08/08 09:09:04;;;;;;;6.53;2.25;;;;;;;29.17;33.95;99927.34;4454221;32;32688;-61
2022/08/08 09:11:46;;;;;;;7.80;2.42;;;;;;;28.94;34.44;99932.72;4461926;32;32277;-62
2022/08/08 09:14:33;;;;;;;9.52;2.85;;;;;;;29.12;34.80;99932.72;4460919;32;33000;-62
2022/08/08 09:17:01;;;;;;;6.22;2.20;;;;;;;29.12;34.66;99932.72;4443764;32;33867;-61
2022/08/08 09:19:40;;;;;;;7.43;3.15;;;;;;;29.15;34.58;99934.16;4452846;32;34908;-62
2022/08/08 09:22:30;;;;;;;6.68;2.50;;;;;;;28.93;35.36;99936.53;4453974;32;33948;-62
2022/08/08 09:24:58;;;;;;;3.85;2.25;;;;;;;28.85;35.96;99945.94;4459907;32;34770;-61
2022/08/08 09:27:25;;;;;;;5.85;2.90;;;;;;;28.50;36.22;99940.16;4454803;32;32444;-62
2022/08/08 09:30:15;;;;;;;7.30;2.55;;;;;;;28.42;36.31;99934.97;4458528;32;32751;-62
2022/08/08 09:32:52;;;;;;;5.20;2.90;;;;;;;28.27;36.66;99932.53;4461080;32;34975;-62
2022/08/08 09:35:44;;;;;;;5.62;2.40;;;;;;;28.50;36.54;99935.50;4451348;32;33656;-62
2022/08/08 09:38:34;;;;;;;6.75;2.67;;;;;;;28.49;36.75;99931.06;4452282;32;34794;-62
2022/08/08 09:41:33;;;;;;;6.43;2.78;;;;;;;28.35;37.56;99932.25;4445467;32;32767;-62
2022/08/08 09:44:39;;;;;;;7.40;2.85;;;;;;;28.44;37.44;99930.06;4461614;32;33639;-62
2022/08/08 09:47:08;;;;;;;5.62;2.60;;;;;;;28.48;37.36;99923.91;4438307;32;31990;-62
2022/08/08 09:49:57;;;;;;;4.82;2.85;;;;;;;28.51;37.09;99920.69;4452306;32;32536;-62
2022/08/08 09:52:31;;;;;;;7.65;2.80;;;;;;;28.46;37.63;99914.19;4452815;32;33359;-62
2022/08/08 09:55:21;;;;;;;5.70;2.50;;;;;;;28.71;37.41;99909.44;4461857;32;34309;-62
2022/08/08 09:58:17;;;;;;;4.28;2.10;;;;;;;28.75;37.76;99916.19;4459523;32;34716;-62
2022/08/08 10:01:00;;;;;;;6.12;2.53;;;;;;;28.19;38.65;99910.81;4452434;32;33868;-62
2022/08/08 10:03:30;;;;;;;5.75;3.15;;;;;;;28.58;37.67;99906.84;4450379;32;34182;-62
2022/08/08 10:06:17;;;;;;;5.82;2.55;;;;;;;28.36;38.03;99911.06;4444761;32;34628;-62
2022/08/08 10:08:45;;;;;;;3.92;2.20;;;;;;;28.36;38.28;99909.16;4455054;32;33640;-62
2022/08/08 10:11:20;;;;;;;5.57;3.17;;;;;;;28.31;38.48;99911.75;4444490;32;32345;-62
2022/08/08 10:14:10;;;;;;;4.80;2.75;;;;;;;28.33;38.36;99913.19;4465393;32;33727;-61
2022/08/08 10:16:58;;;;;;;7.32;2.72;;;;;;;28.62;37.51;99919.09;4459953;32;34170;-62
2022/08/08 10:19:38;;;;;;;5.35;2.85;;;;;;;28.83;37.42;99920.56;4451777;32;32099;-61
2022/08/08 10:22:26;;;;;;;5.47;2.62;;;;;;;28.73;37.84;99929.34;4457890;32;34028;-61
2022/08/08 10:24:59;;;;;;;6.85;2.75;;;;;;;28.46;37.46;99928.78;4452537;32;35245;-61
2022/08/08 10:27:30;;;;;;;4.50;2.65;;;;;;;28.13;38.51;99925.47;4453330;32;34088;-61
2022/08/08 10:30:04;;;;;;;6.32;2.75;;;;;;;28.48;37.45;99923.91;4449214;32;32308;-61
2022/08/08 10:32:34;;;;;;;4.55;2.35;;;;;;;28.61;37.55;99927.59;4454624;32;32601;-61
2022/08/08 10:35:13;;;;;;;6.25;2.83;;;;;;;28.65;37.76;99917.78;4460531;32;33933;-61
2022/08/08 10:38:03;;;;;;;4.32;2.62;;;;;;;28.02;38.50;99903.09;4458959;32;33962;-62
2022/08/08 10:40:32;;;;;;;5.55;2.58;;;;;;;28.22;38.24;99902.94;4457056;32;32179;-62
2022/08/08 10:43:02;;;;;;;6.07;2.78;;;;;;;28.22;38.32;99905.72;4445511;32;34745;-62
2022/08/08 10:45:45;;;;;;;7.65;3.08;;;;;;;28.34;38.59;99895.59;4440245;32;32651;-62
2022/08/08 10:48:32;;;;;;;6.03;3.33;;;;;;;27.89;39.44;99902.37;4455985;32;32840;-61
2022/08/08 10:51:24;;;;;;;5.65;3.05;;;;;;;27.78;39.70;99910.31;4462163;32;32685;-62
2022/08/08 10:53:57;;;;;;;7.28;3.20;;;;;;;27.88;40.40;99918.06;4458652;32;33971;-61
2022/08/08 10:56:32;;;;;;;7.37;3.22;;;;;;;27.81;40.58;99920.00;4459771;32;34033;-61
2022/08/08 10:59:09;;;;;;;6.18;3.30;;;;;;;26.97;43.28;99934.78;4452221;32;32735;-61
2022/08/08 11:01:46;;;;;;;6.50;3.30;;;;;;;26.80;44.39;99935.25;4450863;32;34455;-61
2022/08/08 11:04:21;;;;;;;7.78;3.47;;;;;;;26.88;44.82;99935.03;4453279;32;33826;-61
2022/08/08 11:07:05;;;;;;;7.03;3.50;;;;;;;26.88;45.96;99936.94;4456932;32;35814;-61
2022/08/08 11:09:33;;;;;;;6.90;3.80;;;;;;;27.03;45.58;99929.28;4440613;32;33581;-62
2022/08/08 11:12:02;;;;;;;6.37;3.62;;;;;;;26.92;45.72;99929.94;4444703;32;32098;-61
2022/08/08 11:14:50;;;;;;;8.90;3.60;;;;;;;26.89;46.07;99939.47;4451441;32;33763;-61
2022/08/08 11:17:21;;;;;;;6.57;3.47;;;;;;;26.57;46.53;99935.75;4455533;32;34074;-61
2022/08/08 11:20:11;;;;;;;7.07;3.62;;;;;;;26.24;47.33;99927.53;4455087;32;33683;-62
2022/08/08 11:22:40;;;;;;;7.28;4.10;;;;;;;26.16;48.14;99920.38;4456284;32;32814;-62
2022/08/08 11:25:11;;;;;;;5.65;3.95;;;;;;;26.43;47.67;99921.19;4458320;32;32412;-61
2022/08/08 11:27:46;;;;;;;10.05;4.12;;;;;;;26.43;47.87;99914.84;4456384;32;35022;-62
2022/08/08 11:30:15;;;;;;;6.87;3.87;;;;;;;26.34;48.04;99913.38;4460947;32;34145;-61
2022/08/08 11:32:54;;;;;;;9.77;3.60;;;;;;;26.06;49.21;99913.62;4452201;32;33785;-62
2022/08/08 11:35:22;;;;;;;7.20;3.92;;;;;;;26.92;47.34;99917.06;4451444;32;34955;-62
2022/08/08 11:38:12;;;;;;;8.02;3.72;;;;;;;26.54;48.50;99911.47;4462318;32;34087;-62
2022/08/08 11:40:59;;;;;;;7.65;4.57;;;;;;;27.00;47.34;99917.87;4458484;32;34160;-62
2022/08/08 11:43:29;;;;;;;6.85;4.20;;;;;;;26.43;49.04;99921.19;4435155;32;32014;-61
2022/08/08 11:46:09;;;;;;;12.02;4.90;;;;;;;26.50;49.36;99928.59;4457290;32;32699;-61
2022/08/08 11:48:44;;;;;;;9.27;4.60;;;;;;;26.20;50.16;99935.34;4460038;32;34792;-62
2022/08/08 11:51:16;;;;;;;7.72;5.10;;;;;;;26.32;50.18;99930.06;4442066;32;37250;-62
2022/08/08 11:54:05;;;;;;;11.25;4.55;;;;;;;26.16;50.74;99923.13;4459889;32;34671;-61
2022/08/08 11:56:53;;;;;;;11.88;5.40;;;;;;;26.46;49.93;99934.47;4453386;32;34622;-62
2022/08/08 11:59:32;;;;;;;8.85;5.43;;;;;;;25.61;52.08;99936.12;4437921;32;33596;-62
2022/08/08 12:02:20;;;;;;;7.37;4.37;;;;;;;25.39;52.73;99940.91;4452769;32;34166;-62
2022/08/08 12:05:18;;;;;;;9.73;4.82;;;;;;;25.03;53.84;99943.91;4461922;32;31607;-62
2022/08/08 12:07:53;;;;;;;8.90;4.47;;;;;;;25.33;53.57;99939.84;4432924;32;32150;-61
2022/08/08 12:10:25;;;;;;;8.27;4.72;;;;;;;25.33;53.51;99945.34;4454809;32;35032;-62
2022/08/08 12:13:07;;;;;;;6.72;4.07;;;;;;;25.66;52.26;99941.81;4440758;32;33532;-62
2022/08/08 12:15:38;;;;;;;7.03;4.55;;;;;;;25.93;52.22;99945.47;4456147;32;33750;-62
2022/08/08 12:18:13;;;;;;;6.70;4.32;;;;;;;25.72;52.32;99940.16;4453293;32;34971;-61
2022/08/08 12:20:42;;;;;;;8.63;4.00;;;;;;;26.05;51.74;99945.69;4456761;32;32953;-61
2022/08/08 12:23:12;;;;;;;6.87;3.72;;;;;;;26.23;51.27;99932.19;4459427;32;34060;-61
2022/08/08 12:26:08;;;;;;;8.07;3.50;;;;;;;25.54;50.86;99938.00;4443732;32;32199;-62
2022/08/08 12:28:55;;;;;;;7.07;4.05;;;;;;;25.52;51.08;99940.09;4451469;32;35031;-62
2022/08/08 12:31:33;;;;;;;6.70;3.53;;;;;;;25.91;50.21;99939.37;4458918;32;35204;-61
2022/08/08 12:34:51;;;;;;;7.95;3.78;;;;;;;25.63;50.76;99942.25;4445093;32;32685;-61
2022/08/08 12:37:29;;;;;;;7.32;3.70;;;;;;;25.50;51.27;99942.22;4451535;32;33354;-61
2022/08/08 12:40:17;;;;;;;6.12;3.33;;;;;;;26.11;49.89;99946.75;4450671;32;33901;-62
2022/08/08 12:42:51;;;;;;;8.63;3.65;;;;;;;26.27;48.89;99945.47;4459725;32;32669;-61
2022/08/08 12:45:19;;;;;;;7.22;3.65;;;;;;;26.38;49.05;99951.16;4459869;32;33863;-61
2022/08/08 12:48:21;;;;;;;6.75;3.72;;;;;;;26.10;49.37;99958.75;4460802;32;33616;-62
2022/08/08 12:51:05;;;;;;;8.05;3.58;;;;;;;26.10;49.16;99964.25;4454080;32;34985;-62
2022/08/08 12:54:00;;;;;;;6.62;4.15;;;;;;;25.79;50.67;99963.78;4449802;32;34069;-62
2022/08/08 12:56:33;;;;;;;5.00;3.55;;;;;;;25.18;52.09;99966.56;4445972;32;32535;-62
2022/08/08 12:59:15;;;;;;;6.07;3.87;;;;;;;25.82;50.43;99969.94;4451590;32;32021;-62
2022/08/08 13:01:58;;;;;;;6.20;3.60;;;;;;;25.63;50.96;99958.69;4455395;32;35442;-61
2022/08/08 13:04:28;;;;;;;5.75;3.37;;;;;;;25.42;51.45;99958.84;4453129;32;34071;-62